createdAt,value
2017-11-24T00:00:31.952Z,68.11
2017-11-24T00:01:12.557Z,68.11
2017-11-24T00:01:53.103Z,68.01
2017-11-24T00:02:33.721Z,68.11
2017-11-24T00:03:14.324Z,68.3
2017-11-24T00:03:54.831Z,68.11
2017-11-24T00:04:35.361Z,68.11
2017-11-24T00:05:15.901Z,67.91
2017-11-24T00:05:56.444Z,68.3
2017-11-24T00:06:36.991Z,68.11
2017-11-24T00:07:17.570Z,68.4
2017-11-24T00:07:58.107Z,68.4
2017-11-24T00:08:38.663Z,68.3
2017-11-24T00:09:19.197Z,68.21
2017-11-24T00:09:59.722Z,68.11
2017-11-24T00:10:40.295Z,68.3
2017-11-24T00:11:20.816Z,68.21
2017-11-24T00:12:01.385Z,68.21
2017-11-24T00:12:41.939Z,68.11
2017-11-24T00:13:22.467Z,68.3
2017-11-24T00:14:03.013Z,68.21
2017-11-24T00:14:43.617Z,68.21
2017-11-24T00:15:24.060Z,68.01
2017-11-24T00:16:04.660Z,68.11
2017-11-24T00:16:45.204Z,68.4
2017-11-24T00:17:25.680Z,68.21
2017-11-24T00:18:06.225Z,68.11
2017-11-24T00:18:46.840Z,68.21
2017-11-24T00:19:27.381Z,68.11
2017-11-24T00:20:07.879Z,68.4
2017-11-24T00:20:48.496Z,68.4
2017-11-24T00:21:29.069Z,68.4
2017-11-24T00:22:09.581Z,68.3
2017-11-24T00:22:50.174Z,68.21
2017-11-24T00:23:30.725Z,68.11
2017-11-24T00:24:11.306Z,68.11
2017-11-24T00:24:51.820Z,67.91
2017-11-24T00:25:32.411Z,68.11
2017-11-24T00:26:12.889Z,68.01
2017-11-24T00:26:53.438Z,68.11
2017-11-24T00:27:33.960Z,68.01
2017-11-24T00:28:14.530Z,68.4
2017-11-24T00:28:55.046Z,68.87
2017-11-24T00:29:35.643Z,68.78
2017-11-24T00:30:16.173Z,68.11
2017-11-24T00:30:56.780Z,68.11
2017-11-24T00:31:37.386Z,67.91
2017-11-24T00:32:17.933Z,68.11
2017-11-24T00:32:58.426Z,68.01
2017-11-24T00:33:39.005Z,68.11
2017-11-24T00:34:19.501Z,68.11
2017-11-24T00:35:00.053Z,67.82
2017-11-24T00:35:40.595Z,68.4
2017-11-24T00:36:21.139Z,68.3
2017-11-24T00:37:01.665Z,68.11
2017-11-24T00:37:42.252Z,68.21
2017-11-24T00:38:22.791Z,68.3
2017-11-24T00:39:03.263Z,68.11
2017-11-24T00:39:43.996Z,68.21
2017-11-24T00:40:24.553Z,68.11
2017-11-24T00:41:05.212Z,68.11
2017-11-24T00:43:18.739Z,68.11
2017-11-24T00:43:59.335Z,68.21
2017-11-24T00:44:39.835Z,68.21
2017-11-24T00:45:20.401Z,68.01
2017-11-24T00:46:00.992Z,68.11
2017-11-24T00:46:41.473Z,68.21
2017-11-24T00:47:22.008Z,68.11
2017-11-24T00:48:02.529Z,68.49
2017-11-24T00:48:43.050Z,68.49
2017-11-24T00:49:23.574Z,68.21
2017-11-24T00:50:04.139Z,68.3
2017-11-24T00:50:44.631Z,68.49
2017-11-24T00:51:25.178Z,68.21
2017-11-24T00:52:05.731Z,68.01
2017-11-24T00:52:46.220Z,67.82
2017-11-24T00:53:26.789Z,68.3
2017-11-24T00:54:07.278Z,68.68
2017-11-24T00:54:47.853Z,68.59
2017-11-24T00:55:28.345Z,68.11
2017-11-24T00:56:08.872Z,68.11
2017-11-24T00:56:49.413Z,68.3
2017-11-24T00:57:29.998Z,68.49
2017-11-24T00:58:10.512Z,68.78
2017-11-24T00:58:51.006Z,68.68
2017-11-24T00:59:31.541Z,68.3
2017-11-24T01:00:12.096Z,68.11
2017-11-24T01:00:52.643Z,68.01
2017-11-24T01:01:33.241Z,68.4
2017-11-24T01:02:13.757Z,68.49
2017-11-24T01:02:54.372Z,68.87
2017-11-24T01:03:34.923Z,68.11
2017-11-24T01:04:15.461Z,68.3
2017-11-24T01:04:55.965Z,68.21
2017-11-24T01:05:36.541Z,68.3
2017-11-24T01:06:17.115Z,68.3
2017-11-24T01:06:57.617Z,68.01
2017-11-24T01:07:38.165Z,68.01
2017-11-24T01:08:18.719Z,68.21
2017-11-24T01:08:59.301Z,68.01
2017-11-24T01:09:39.795Z,68.01
2017-11-24T01:10:20.345Z,67.82
2017-11-24T01:11:00.958Z,68.11
2017-11-24T01:11:41.491Z,68.78
2017-11-24T01:12:22.035Z,68.87
2017-11-24T01:13:02.490Z,68.01
2017-11-24T01:13:43.012Z,68.01
2017-11-24T01:14:23.584Z,68.21
2017-11-24T01:15:04.097Z,68.3
2017-11-24T01:15:44.638Z,68.3
2017-11-24T01:16:25.228Z,68.3
2017-11-24T01:17:05.711Z,68.11
2017-11-24T01:17:46.290Z,68.21
2017-11-24T01:18:26.849Z,67.91
2017-11-24T01:19:07.449Z,68.21
2017-11-24T01:19:47.933Z,68.11
2017-11-24T01:20:28.516Z,68.21
2017-11-24T01:21:09.051Z,68.11
2017-11-24T01:21:49.545Z,68.21
2017-11-24T01:22:30.091Z,68.01
2017-11-24T01:23:10.609Z,68.11
2017-11-24T01:23:51.132Z,68.11
2017-11-24T01:24:31.715Z,67.91
2017-11-24T01:25:12.340Z,68.21
2017-11-24T01:25:52.840Z,68.01
2017-11-24T01:26:33.349Z,68.21
2017-11-24T01:27:13.967Z,68.21
2017-11-24T01:27:54.477Z,68.21
2017-11-24T01:28:35.051Z,68.3
2017-11-24T01:29:15.577Z,68.21
2017-11-24T01:29:56.161Z,68.21
2017-11-24T01:30:36.685Z,68.21
2017-11-24T01:31:17.341Z,68.49
2017-11-24T01:31:57.851Z,68.21
2017-11-24T01:32:38.447Z,67.91
2017-11-24T01:33:19.082Z,68.01
2017-11-24T01:33:59.617Z,68.11
2017-11-24T01:34:40.154Z,67.82
2017-11-24T01:35:20.699Z,68.3
2017-11-24T01:36:01.277Z,67.82
2017-11-24T01:36:41.769Z,68.4
2017-11-24T01:37:22.376Z,68.21
2017-11-24T01:38:02.952Z,68.01
2017-11-24T01:38:43.486Z,67.91
2017-11-24T01:39:24.008Z,68.11
2017-11-24T01:40:04.549Z,68.11
2017-11-24T01:40:45.074Z,68.21
2017-11-24T01:41:25.664Z,68.4
2017-11-24T01:42:06.178Z,68.78
2017-11-24T01:42:46.751Z,68.59
2017-11-24T01:43:27.316Z,68.87
2017-11-24T01:44:07.918Z,68.78
2017-11-24T01:44:48.399Z,68.59
2017-11-24T01:45:28.956Z,68.49
2017-11-24T01:46:09.500Z,68.78
2017-11-24T01:46:49.993Z,68.4
2017-11-24T01:47:30.544Z,68.4
2017-11-24T01:48:11.091Z,68.49
2017-11-24T01:48:51.626Z,68.87
2017-11-24T01:49:32.178Z,68.49
2017-11-24T01:50:12.720Z,68.87
2017-11-24T01:50:53.308Z,68.4
2017-11-24T01:51:33.834Z,68.49
2017-11-24T01:52:14.371Z,68.21
2017-11-24T01:52:54.962Z,68.3
2017-11-24T01:53:35.421Z,68.11
2017-11-24T01:54:15.983Z,68.68
2017-11-24T01:54:56.498Z,68.59
2017-11-24T01:55:37.021Z,68.4
2017-11-24T01:56:17.628Z,68.78
2017-11-24T01:56:58.126Z,68.78
2017-11-24T01:57:38.708Z,68.49
2017-11-24T01:58:19.177Z,68.49
2017-11-24T01:58:59.782Z,68.59
2017-11-24T01:59:40.481Z,69.17
2017-11-24T02:00:21.000Z,68.87
2017-11-24T02:01:01.491Z,69.07
2017-11-24T02:01:42.050Z,68.68
2017-11-24T02:02:22.531Z,68.87
2017-11-24T02:03:03.121Z,68.87
2017-11-24T02:03:43.695Z,69.17
2017-11-24T02:04:24.225Z,69.54
2017-11-24T02:05:04.748Z,69.64
2017-11-24T02:05:45.326Z,69.74
2017-11-24T02:06:25.800Z,69.45
2017-11-24T02:07:06.351Z,69.35
2017-11-24T02:07:46.887Z,69.07
2017-11-24T02:08:27.387Z,69.42
2017-11-24T02:09:07.939Z,69.83
2017-11-24T02:09:48.476Z,69.64
2017-11-24T02:10:29.097Z,69.83
2017-11-24T02:11:09.592Z,69.83
2017-11-24T02:11:50.255Z,69.74
2017-11-24T02:12:30.693Z,69.54
2017-11-24T02:13:11.231Z,70.21
2017-11-24T02:13:51.753Z,70.03
2017-11-24T02:14:32.320Z,70.31
2017-11-24T02:15:12.835Z,69.54
2017-11-24T02:15:53.381Z,69.83
2017-11-24T02:16:33.891Z,69.83
2017-11-24T02:17:14.475Z,69.54
2017-11-24T02:17:55.012Z,69.17
2017-11-24T02:18:35.542Z,69.83
2017-11-24T02:19:16.033Z,69.93
2017-11-24T02:19:56.613Z,69.45
2017-11-24T02:20:37.216Z,69.17
2017-11-24T02:21:17.746Z,69.93
2017-11-24T02:21:58.275Z,69.64
2017-11-24T02:22:38.804Z,69.74
2017-11-24T02:23:19.401Z,70.12
2017-11-24T02:23:59.976Z,69.51
2017-11-24T02:24:40.468Z,70.28
2017-11-24T02:25:21.062Z,69.89
2017-11-24T02:26:01.574Z,70.09
2017-11-24T02:26:42.155Z,70.7
2017-11-24T02:27:22.684Z,70.37
2017-11-24T02:28:03.232Z,70.28
2017-11-24T02:28:43.744Z,70.98
2017-11-24T02:29:24.367Z,70.85
2017-11-24T02:30:04.862Z,71.04
2017-11-24T02:30:45.395Z,70.47
2017-11-24T02:31:25.971Z,70.37
2017-11-24T02:32:06.496Z,70.41
2017-11-24T02:32:47.060Z,70.31
2017-11-24T02:33:27.561Z,70.7
2017-11-24T02:34:08.105Z,70.18
2017-11-24T02:34:48.696Z,70.56
2017-11-24T02:35:29.196Z,70.56
2017-11-24T02:36:09.802Z,70.37
2017-11-24T02:36:50.540Z,70.56
2017-11-24T02:37:31.059Z,70.56
2017-11-24T02:38:11.589Z,70.37
2017-11-24T02:38:52.148Z,70.66
2017-11-24T02:39:32.663Z,70.28
2017-11-24T02:40:13.231Z,70.85
2017-11-24T02:40:53.785Z,70.37
2017-11-24T02:41:34.395Z,70.56
2017-11-24T02:42:14.926Z,70.66
2017-11-24T02:42:55.429Z,70.85
2017-11-24T02:43:36.054Z,70.56
2017-11-24T02:44:16.558Z,70.76
2017-11-24T02:44:57.118Z,70.66
2017-11-24T02:45:37.718Z,70.66
2017-11-24T02:46:18.230Z,70.85
2017-11-24T02:46:58.765Z,70.37
2017-11-24T02:47:39.302Z,70.66
2017-11-24T02:48:19.910Z,70.85
2017-11-24T02:49:00.384Z,70.95
2017-11-24T02:49:40.980Z,71.23
2017-11-24T02:50:21.530Z,71.23
2017-11-24T02:51:02.093Z,71.23
2017-11-24T02:51:42.595Z,70.85
2017-11-24T02:52:23.121Z,71.14
2017-11-24T02:53:03.670Z,71.33
2017-11-24T02:53:44.224Z,71.23
2017-11-24T02:54:24.758Z,70.76
2017-11-24T02:55:05.275Z,71.04
2017-11-24T02:55:45.812Z,70.47
2017-11-24T02:56:26.353Z,70.56
2017-11-24T02:57:06.917Z,70.76
2017-11-24T02:57:47.416Z,70.76
2017-11-24T02:58:27.991Z,70.47
2017-11-24T02:59:08.552Z,70.47
2017-11-24T02:59:49.134Z,70.76
2017-11-24T03:00:29.640Z,70.76
2017-11-24T03:01:10.177Z,70.56
2017-11-24T03:01:50.721Z,70.56
2017-11-24T03:02:31.304Z,70.56
2017-11-24T03:03:11.979Z,71.04
2017-11-24T03:03:52.720Z,71.04
2017-11-24T03:04:33.226Z,71.62
2017-11-24T03:05:13.788Z,71.42
2017-11-24T03:05:54.285Z,71.33
2017-11-24T03:06:34.748Z,71.23
2017-11-24T03:07:15.332Z,71.42
2017-11-24T03:07:55.866Z,71.42
2017-11-24T03:08:36.417Z,71.42
2017-11-24T03:09:17.876Z,71.33
2017-11-24T03:09:57.527Z,71.33
2017-11-24T03:10:38.038Z,71.33
2017-11-24T03:11:18.569Z,71.33
2017-11-24T03:11:59.107Z,71.42
2017-11-24T03:12:39.666Z,71.14
2017-11-24T03:13:20.231Z,71.62
2017-11-24T03:14:00.771Z,71.52
2017-11-24T03:14:41.319Z,71.33
2017-11-24T03:15:21.908Z,71.04
2017-11-24T03:16:02.454Z,70.85
2017-11-24T03:16:43.010Z,71.04
2017-11-24T03:17:23.838Z,70.85
2017-11-24T03:18:04.137Z,71.14
2017-11-24T03:18:44.844Z,71.33
2017-11-24T03:19:25.414Z,71.33
2017-11-24T03:20:06.004Z,71.23
2017-11-24T03:20:46.587Z,70.85
2017-11-24T03:21:27.158Z,71.33
2017-11-24T03:22:07.719Z,71.23
2017-11-24T03:22:48.263Z,71.62
2017-11-24T03:23:28.810Z,71.52
2017-11-24T03:24:09.367Z,71.42
2017-11-24T03:24:49.922Z,71.42
2017-11-24T03:25:30.494Z,71.14
2017-11-24T03:26:11.021Z,71.04
2017-11-24T03:26:51.621Z,71.71
2017-11-24T03:27:32.185Z,71.14
2017-11-24T03:28:12.727Z,71.04
2017-11-24T03:28:53.232Z,71.33
2017-11-24T03:29:33.804Z,71.71
2017-11-24T03:30:14.379Z,72.19
2017-11-24T03:30:54.873Z,71.62
2017-11-24T03:31:35.408Z,71.52
2017-11-24T03:32:15.941Z,72.29
2017-11-24T03:32:56.508Z,72
2017-11-24T03:33:37.133Z,72
2017-11-24T03:34:17.624Z,72.19
2017-11-24T03:34:58.180Z,72.19
2017-11-24T03:35:38.696Z,72.09
2017-11-24T03:36:19.333Z,71.91
2017-11-24T03:36:59.945Z,72.19
2017-11-24T03:37:40.515Z,72
2017-11-24T03:38:21.017Z,72.09
2017-11-24T03:39:01.566Z,72.48
2017-11-24T03:39:42.083Z,72.38
2017-11-24T03:40:22.621Z,72.29
2017-11-24T03:41:03.138Z,72.48
2017-11-24T03:41:43.689Z,72.48
2017-11-24T03:42:24.244Z,72.09
2017-11-24T03:43:04.797Z,72.19
2017-11-24T03:43:45.322Z,72.19
2017-11-24T03:44:25.868Z,72.38
2017-11-24T03:45:06.435Z,72.67
2017-11-24T03:45:46.962Z,72.19
2017-11-24T03:46:27.510Z,72.29
2017-11-24T03:47:08.065Z,72
2017-11-24T03:47:48.599Z,72.29
2017-11-24T03:48:29.193Z,72.19
2017-11-24T03:49:09.683Z,72.77
2017-11-24T03:49:50.211Z,72.48
2017-11-24T03:50:30.743Z,72.58
2017-11-24T03:51:11.360Z,72.38
2017-11-24T03:51:52.187Z,72.77
2017-11-24T03:52:32.484Z,72.58
2017-11-24T03:53:12.991Z,72
2017-11-24T03:53:53.493Z,72
2017-11-24T03:54:34.033Z,72.48
2017-11-24T03:55:14.586Z,72.19
2017-11-24T03:55:55.143Z,72.67
2017-11-24T03:56:35.741Z,72.58
2017-11-24T03:57:16.273Z,72.67
2017-11-24T03:57:56.755Z,73.05
2017-11-24T03:58:37.304Z,73.05
2017-11-24T03:59:17.809Z,72.96
2017-11-24T03:59:58.352Z,72.67
2017-11-24T04:00:38.909Z,72.38
2017-11-24T04:01:19.501Z,72.58
2017-11-24T04:02:00.062Z,72.67
2017-11-24T04:02:40.553Z,72.58
2017-11-24T04:03:21.109Z,72.48
2017-11-24T04:04:01.697Z,72.48
2017-11-24T04:04:42.207Z,72.38
2017-11-24T04:05:22.823Z,72.67
2017-11-24T04:06:03.294Z,72.48
2017-11-24T04:06:43.837Z,72.58
2017-11-24T04:07:24.524Z,72.58
2017-11-24T04:08:05.060Z,72.38
2017-11-24T04:08:45.661Z,72.77
2017-11-24T04:09:26.146Z,72.38
2017-11-24T04:10:06.722Z,72.38
2017-11-24T04:10:47.238Z,72.38
2017-11-24T04:11:27.793Z,72.67
2017-11-24T04:12:08.345Z,72.58
2017-11-24T04:12:48.912Z,72.58
2017-11-24T04:13:29.449Z,72.58
2017-11-24T04:14:09.990Z,72.48
2017-11-24T04:14:50.570Z,72.48
2017-11-24T04:15:31.133Z,72.19
2017-11-24T04:16:11.791Z,72.09
2017-11-24T04:16:52.281Z,72.19
2017-11-24T04:17:32.822Z,72.29
2017-11-24T04:18:13.342Z,72.38
2017-11-24T04:18:53.923Z,72.19
2017-11-24T04:19:34.476Z,72.19
2017-11-24T04:20:15.019Z,72.19
2017-11-24T04:20:56.402Z,72.38
2017-11-24T04:21:36.094Z,71.71
2017-11-24T04:22:16.627Z,72.29
2017-11-24T04:22:57.214Z,71.71
2017-11-24T04:23:37.747Z,71.33
2017-11-24T04:24:18.248Z,71.71
2017-11-24T04:24:58.794Z,71.33
2017-11-24T04:25:39.278Z,72.09
2017-11-24T04:26:19.820Z,72.19
2017-11-24T04:27:00.382Z,72.19
2017-11-24T04:27:40.910Z,72
2017-11-24T04:28:21.500Z,71.81
2017-11-24T04:29:02.009Z,71.81
2017-11-24T04:29:42.539Z,71.81
2017-11-24T04:30:23.104Z,71.81
2017-11-24T04:31:03.583Z,72.19
2017-11-24T04:31:44.192Z,72.19
2017-11-24T04:32:24.695Z,72.19
2017-11-24T04:33:05.230Z,72.09
2017-11-24T04:33:45.790Z,71.81
2017-11-24T04:34:26.314Z,72.29
2017-11-24T04:35:06.880Z,72
2017-11-24T04:35:47.408Z,72
2017-11-24T04:36:27.950Z,72.19
2017-11-24T04:37:08.436Z,72.09
2017-11-24T04:37:48.989Z,72.38
2017-11-24T04:38:29.638Z,72.29
2017-11-24T04:39:10.172Z,72
2017-11-24T04:39:50.737Z,72.29
2017-11-24T04:40:31.351Z,72.77
2017-11-24T04:41:11.917Z,72.67
2017-11-24T04:41:52.478Z,72.38
2017-11-24T04:42:33.088Z,73.05
2017-11-24T04:43:13.709Z,72.58
2017-11-24T04:43:54.218Z,72.67
2017-11-24T04:44:34.752Z,72.58
2017-11-24T04:45:15.257Z,72.58
2017-11-24T04:45:55.880Z,72.58
2017-11-24T04:46:36.500Z,72.67
2017-11-24T04:47:17.097Z,72.67
2017-11-24T04:47:57.716Z,72.48
2017-11-24T04:48:38.268Z,72.48
2017-11-24T04:49:18.812Z,72.77
2017-11-24T04:49:59.324Z,72.77
2017-11-24T04:50:39.928Z,72.86
2017-11-24T04:51:20.464Z,72.77
2017-11-24T04:52:00.991Z,72.67
2017-11-24T04:52:41.576Z,72.96
2017-11-24T04:53:22.156Z,72.67
2017-11-24T04:54:02.655Z,72.86
2017-11-24T04:54:43.203Z,73.24
2017-11-24T04:55:23.736Z,73.15
2017-11-24T04:56:04.337Z,73.05
2017-11-24T04:56:44.819Z,73.05
2017-11-24T04:57:25.372Z,73.15
2017-11-24T04:58:05.987Z,73.34
2017-11-24T04:58:46.670Z,73.44
2017-11-24T04:59:27.210Z,73.15
2017-11-24T05:00:07.704Z,73.24
2017-11-24T05:00:48.277Z,73.15
2017-11-24T05:01:28.821Z,73.82
2017-11-24T05:02:09.488Z,73.54
2017-11-24T05:02:49.973Z,73.63
2017-11-24T05:03:30.506Z,74.01
2017-11-24T05:04:11.080Z,73.72
2017-11-24T05:04:51.695Z,73.82
2017-11-24T05:05:32.289Z,74.01
2017-11-24T05:06:12.797Z,73.82
2017-11-24T05:06:54.086Z,73.72
2017-11-24T05:07:34.680Z,74.07
2017-11-24T05:08:15.281Z,73.82
2017-11-24T05:08:55.816Z,74.01
2017-11-24T05:09:36.379Z,73.79
2017-11-24T05:10:16.964Z,73.72
2017-11-24T05:10:57.527Z,73.44
2017-11-24T05:11:38.201Z,73.4
2017-11-24T05:12:18.773Z,73.69
2017-11-24T05:12:59.316Z,73.54
2017-11-24T05:13:39.905Z,74.36
2017-11-24T05:14:20.409Z,74.07
2017-11-24T05:15:00.976Z,73.72
2017-11-24T05:15:41.503Z,73.91
2017-11-24T05:16:22.106Z,74.26
2017-11-24T05:17:02.569Z,74.45
2017-11-24T05:17:43.087Z,74.55
2017-11-24T05:18:23.654Z,74.01
2017-11-24T05:19:04.145Z,74.11
2017-11-24T05:19:44.971Z,74.07
2017-11-24T05:20:25.610Z,73.63
2017-11-24T05:21:06.049Z,73.54
2017-11-24T05:21:46.918Z,74.07
2017-11-24T05:22:27.537Z,73.5
2017-11-24T05:23:08.101Z,74.16
2017-11-24T05:23:48.621Z,74.16
2017-11-24T05:24:29.173Z,74.16
2017-11-24T05:25:09.817Z,73.88
2017-11-24T05:25:50.363Z,74.26
2017-11-24T05:26:30.893Z,74.45
2017-11-24T05:27:11.427Z,74.36
2017-11-24T05:27:52.003Z,74.36
2017-11-24T05:28:32.621Z,74.26
2017-11-24T05:29:13.150Z,74.55
2017-11-24T05:29:53.695Z,73.88
2017-11-24T05:30:34.269Z,74.07
2017-11-24T05:31:14.801Z,74.16
2017-11-24T05:31:55.370Z,74.16
2017-11-24T05:32:35.891Z,74.65
2017-11-24T05:33:16.452Z,74.65
2017-11-24T05:33:56.989Z,74.93
2017-11-24T05:34:37.610Z,74.55
2017-11-24T05:35:18.254Z,74.36
2017-11-24T05:35:58.849Z,74.74
2017-11-24T05:36:39.354Z,74.74
2017-11-24T05:37:19.899Z,74.84
2017-11-24T05:38:00.441Z,74.26
2017-11-24T05:38:40.965Z,74.16
2017-11-24T05:39:21.498Z,74.84
2017-11-24T05:40:02.091Z,75.12
2017-11-24T05:40:42.604Z,74.74
2017-11-24T05:41:23.102Z,74.55
2017-11-24T05:42:03.642Z,74.55
2017-11-24T05:42:44.807Z,74.84
2017-11-24T05:43:25.340Z,74.36
2017-11-24T05:44:05.900Z,74.74
2017-11-24T05:44:46.459Z,74.93
2017-11-24T05:45:27.016Z,74.55
2017-11-24T05:46:07.565Z,74.65
2017-11-24T05:46:48.091Z,74.74
2017-11-24T05:47:28.627Z,74.16
2017-11-24T05:48:09.410Z,74.93
2017-11-24T05:48:49.981Z,74.65
2017-11-24T05:49:30.525Z,74.55
2017-11-24T05:50:11.042Z,74.74
2017-11-24T05:50:51.626Z,74.55
2017-11-24T05:51:32.167Z,74.84
2017-11-24T05:52:12.694Z,74.65
2017-11-24T05:52:53.275Z,74.16
2017-11-24T05:53:33.830Z,74.36
2017-11-24T05:54:14.448Z,74.07
2017-11-24T05:54:54.955Z,74.16
2017-11-24T05:55:35.550Z,74.26
2017-11-24T05:56:16.025Z,74.26
2017-11-24T05:56:56.595Z,74.11
2017-11-24T05:57:37.149Z,73.79
2017-11-24T05:58:17.677Z,74.16
2017-11-24T05:58:58.268Z,74.07
2017-11-24T05:59:38.765Z,73.4
2017-11-24T06:00:19.364Z,74.16
2017-11-24T06:00:59.922Z,73.69
2017-11-24T06:01:40.463Z,73.69
2017-11-24T06:02:21.068Z,73.91
2017-11-24T06:03:01.601Z,73.72
2017-11-24T06:03:42.170Z,73.15
2017-11-24T06:04:22.719Z,73.69
2017-11-24T06:05:03.321Z,72.67
2017-11-24T06:05:44.311Z,73.15
2017-11-24T06:06:24.971Z,72.86
2017-11-24T06:07:05.498Z,73.15
2017-11-24T06:07:46.063Z,73.15
2017-11-24T06:08:26.629Z,73.05
2017-11-24T06:09:07.164Z,72.77
2017-11-24T06:09:47.684Z,73.11
2017-11-24T06:10:28.330Z,72.86
2017-11-24T06:11:08.859Z,73.3
2017-11-24T06:11:49.411Z,73.59
2017-11-24T06:12:29.972Z,73.5
2017-11-24T06:13:10.512Z,73.4
2017-11-24T06:13:51.006Z,73.21
2017-11-24T06:14:31.549Z,73.4
2017-11-24T06:15:12.110Z,73.3
2017-11-24T06:15:52.644Z,73.21
2017-11-24T06:16:33.219Z,73.54
2017-11-24T06:17:13.693Z,73.63
2017-11-24T06:17:54.211Z,73.3
2017-11-24T06:18:34.759Z,73.11
2017-11-24T06:19:15.321Z,73.21
2017-11-24T06:19:55.890Z,73.82
2017-11-24T06:20:36.405Z,72.54
2017-11-24T06:21:16.951Z,72.73
2017-11-24T06:21:57.555Z,73.11
2017-11-24T06:22:38.168Z,73.24
2017-11-24T06:23:18.797Z,73.91
2017-11-24T06:23:59.203Z,73.24
2017-11-24T06:24:39.995Z,72.67
2017-11-24T06:25:20.569Z,72.73
2017-11-24T06:26:01.148Z,73.05
2017-11-24T06:26:41.646Z,73.15
2017-11-24T06:27:22.171Z,72.96
2017-11-24T06:28:02.722Z,72.77
2017-11-24T06:28:43.229Z,72.77
2017-11-24T06:29:23.807Z,72.86
2017-11-24T06:30:04.370Z,72.67
2017-11-24T06:30:44.986Z,72.77
2017-11-24T06:31:25.518Z,73.34
2017-11-24T06:32:06.075Z,73.82
2017-11-24T06:32:46.575Z,73.91
2017-11-24T06:33:27.134Z,72.96
2017-11-24T06:34:07.672Z,72.67
2017-11-24T06:34:48.297Z,73.24
2017-11-24T06:35:28.862Z,73.15
2017-11-24T06:36:09.360Z,73.63
2017-11-24T06:36:49.993Z,73.21
2017-11-24T06:37:30.458Z,73.24
2017-11-24T06:38:11.045Z,73.15
2017-11-24T06:38:51.546Z,72.77
2017-11-24T06:39:32.133Z,72.92
2017-11-24T06:40:12.619Z,72.96
2017-11-24T06:40:53.188Z,73.15
2017-11-24T06:41:33.724Z,73.91
2017-11-24T06:42:14.293Z,73.34
2017-11-24T06:42:54.868Z,73.15
2017-11-24T06:43:35.390Z,73.91
2017-11-24T06:44:15.878Z,73.63
2017-11-24T06:44:56.442Z,73.72
2017-11-24T06:45:36.962Z,73.44
2017-11-24T06:46:17.506Z,72.77
2017-11-24T06:46:58.200Z,73.05
2017-11-24T06:47:38.772Z,72.73
2017-11-24T06:48:19.384Z,72.73
2017-11-24T06:49:00.162Z,72.96
2017-11-24T06:49:40.627Z,72.63
2017-11-24T06:50:21.174Z,72.73
2017-11-24T06:51:04.463Z,72.77
2017-11-24T06:51:45.080Z,72.63
2017-11-24T06:52:25.906Z,72.83
2017-11-24T06:53:06.433Z,72.73
2017-11-24T06:53:47.068Z,72.63
2017-11-24T06:54:30.588Z,72.54
2017-11-24T06:55:11.141Z,73.02
2017-11-24T06:55:51.854Z,72.96
2017-11-24T06:56:32.427Z,73.15
2017-11-24T06:57:13.056Z,73.21
2017-11-24T06:57:53.601Z,72.77
2017-11-24T06:58:34.111Z,72.92
2017-11-24T06:59:14.698Z,72.34
2017-11-24T06:59:55.224Z,72.77
2017-11-24T07:00:35.907Z,72.92
2017-11-24T07:01:17.371Z,72.73
2017-11-24T07:01:59.006Z,73.21
2017-11-24T07:02:39.590Z,73.21
2017-11-24T07:03:20.134Z,72.92
2017-11-24T07:04:00.680Z,72.25
2017-11-24T07:04:41.231Z,73.11
2017-11-24T07:05:21.848Z,73.44
2017-11-24T07:06:02.298Z,74.01
2017-11-24T07:06:42.857Z,74.07
2017-11-24T07:07:24.055Z,72.83
2017-11-24T07:08:04.738Z,73.11
2017-11-24T07:08:45.297Z,72.77
2017-11-24T07:09:25.812Z,73.05
2017-11-24T07:10:06.369Z,74.01
2017-11-24T07:10:46.901Z,74.11
2017-11-24T07:11:27.663Z,74.01
2017-11-24T07:12:08.248Z,73.63
2017-11-24T07:12:48.895Z,73.05
2017-11-24T07:13:29.285Z,73.11
2017-11-24T07:14:09.885Z,74.97
2017-11-24T07:14:50.468Z,75.07
2017-11-24T07:15:31.087Z,76.98
2017-11-24T07:16:11.625Z,91.63
2017-11-24T07:16:52.341Z,89.81
2017-11-24T07:17:33.142Z,91.63
2017-11-24T07:18:13.630Z,99.99
2017-11-24T07:18:54.205Z,99.99
2017-11-24T07:19:34.675Z,99.99
2017-11-24T07:20:15.219Z,99.99
2017-11-24T07:20:55.755Z,99.99
2017-11-24T07:21:36.477Z,96.61
2017-11-24T07:22:16.996Z,94.98
2017-11-24T07:22:57.685Z,83.87
2017-11-24T07:23:38.879Z,79.18
2017-11-24T07:24:19.457Z,80.04
2017-11-24T07:24:59.975Z,78.13
2017-11-24T07:25:40.451Z,75.64
2017-11-24T07:26:21.411Z,74.87
2017-11-24T07:27:01.910Z,76.6
2017-11-24T07:27:42.618Z,92.25
2017-11-24T07:28:23.326Z,99.99
2017-11-24T07:29:04.017Z,99.99
2017-11-24T07:29:44.559Z,99.99
2017-11-24T07:30:25.467Z,99.99
2017-11-24T07:31:06.148Z,99.99
2017-11-24T07:31:46.687Z,99.99
2017-11-24T07:32:27.264Z,92.44
2017-11-24T07:33:07.941Z,99.99
2017-11-24T07:33:48.610Z,94.93
2017-11-24T07:34:29.171Z,84.3
2017-11-24T07:35:09.688Z,81.71
2017-11-24T07:35:50.456Z,81.43
2017-11-24T07:36:31.056Z,80.56
2017-11-24T07:37:11.541Z,78.17
2017-11-24T07:37:52.169Z,78.36
2017-11-24T07:38:32.807Z,78.17
2017-11-24T07:39:13.720Z,76.44
2017-11-24T07:39:54.485Z,75.48
2017-11-24T07:40:35.039Z,74.91
2017-11-24T07:41:15.674Z,76.54
2017-11-24T07:41:56.230Z,83.63
2017-11-24T07:42:36.817Z,83.72
2017-11-24T07:43:17.471Z,85.83
2017-11-24T07:43:57.970Z,85.83
2017-11-24T07:44:38.464Z,83.92
2017-11-24T07:45:19.809Z,87.37
2017-11-24T07:46:00.564Z,88.61
2017-11-24T07:46:41.228Z,81.81
2017-11-24T07:47:22.067Z,75.87
2017-11-24T07:48:02.557Z,73.38
2017-11-24T07:48:43.488Z,73.66
2017-11-24T07:49:24.086Z,75.58
2017-11-24T07:50:04.644Z,75.87
2017-11-24T07:50:45.183Z,73.38
2017-11-24T07:51:25.749Z,75.01
2017-11-24T07:52:06.274Z,75.48
2017-11-24T07:52:46.939Z,74.91
2017-11-24T07:53:27.624Z,72.9
2017-11-24T07:54:08.245Z,72.13
2017-11-24T07:54:48.824Z,72.71
2017-11-24T07:55:29.389Z,72.23
2017-11-24T07:56:10.289Z,72.32
2017-11-24T07:56:50.750Z,73.19
2017-11-24T07:57:31.593Z,73.9
2017-11-24T07:58:12.251Z,73.28
2017-11-24T07:58:52.978Z,72.94
2017-11-24T07:59:34.110Z,73.61
2017-11-24T08:00:15.873Z,72.94
2017-11-24T08:00:56.401Z,77.63
2017-11-24T08:01:37.049Z,87.21
2017-11-24T08:02:17.565Z,99.99
2017-11-24T08:02:58.132Z,95.46
2017-11-24T08:03:38.702Z,99.99
2017-11-24T08:04:19.225Z,99.99
2017-11-24T08:04:59.833Z,99.99
2017-11-24T08:05:40.422Z,99.99
2017-11-24T08:06:20.994Z,99.99
2017-11-24T08:07:01.747Z,99.99
2017-11-24T08:07:43.201Z,99.99
2017-11-24T08:08:24.065Z,87.45
2017-11-24T08:09:05.231Z,77.73
2017-11-24T08:09:46.125Z,76.71
2017-11-24T08:10:26.955Z,75.04
2017-11-24T08:11:07.984Z,74.95
2017-11-24T08:11:48.256Z,75.9
2017-11-24T08:12:30.278Z,99.99
2017-11-24T08:13:12.596Z,99.99
2017-11-24T08:13:53.342Z,99.99
2017-11-24T08:14:33.865Z,99.99
2017-11-24T08:15:14.460Z,99.99
2017-11-24T08:15:59.483Z,99.99
2017-11-24T08:16:40.091Z,99.99
2017-11-24T08:17:20.968Z,99.99
2017-11-24T08:18:03.201Z,99.99
2017-11-24T08:18:44.724Z,99.99
2017-11-24T08:19:26.153Z,92.77
2017-11-24T08:20:07.302Z,84.86
2017-11-24T08:20:47.883Z,80.74
2017-11-24T08:21:30.553Z,78.53
2017-11-24T08:22:10.902Z,74.41
2017-11-24T08:22:51.836Z,73.35
2017-11-24T08:23:33.440Z,73.93
2017-11-24T08:24:14.008Z,74.69
2017-11-24T08:24:54.565Z,74.51
2017-11-24T08:25:36.212Z,72.68
2017-11-24T08:26:17.970Z,70.96
2017-11-24T08:26:58.605Z,69.71
2017-11-24T08:27:39.578Z,70.09
2017-11-24T08:28:20.131Z,71.15
2017-11-24T08:29:01.130Z,81.7
2017-11-24T08:29:41.816Z,96.61
2017-11-24T08:30:23.251Z,99.99
2017-11-24T08:31:04.008Z,99.99
2017-11-24T08:31:44.563Z,99.99
2017-11-24T08:32:25.913Z,97.28
2017-11-24T08:33:06.765Z,91.91
2017-11-24T08:33:48.554Z,87.21
2017-11-24T08:34:29.488Z,78.47
2017-11-24T08:35:15.712Z,72.43
2017-11-24T08:35:57.365Z,70.23
2017-11-24T08:36:37.916Z,70.61
2017-11-24T08:37:18.606Z,71.19
2017-11-24T08:37:59.185Z,70.8
2017-11-24T08:38:39.832Z,70.9
2017-11-24T08:39:20.440Z,72.43
2017-11-24T08:40:01.188Z,71.86
2017-11-24T08:40:42.386Z,69.74
2017-11-24T08:41:22.913Z,69.17
2017-11-24T08:42:03.601Z,69.74
2017-11-24T08:42:45.132Z,70.13
2017-11-24T08:43:26.076Z,68.3
2017-11-24T08:44:06.890Z,67.92
2017-11-24T08:44:47.913Z,69.36
2017-11-24T08:45:28.657Z,69.36
2017-11-24T08:46:09.096Z,69.26
2017-11-24T08:46:49.641Z,68.88